createdAt,value
2022-12-19T00:01:41.475Z,23.63
2022-12-19T00:04:12.164Z,25.55
2022-12-19T00:06:43.415Z,23.80
2022-12-19T00:09:11.527Z,23.80
2022-12-19T00:11:39.094Z,23.15
2022-12-19T00:14:07.192Z,25.17
2022-12-19T00:16:33.972Z,22.08
2022-12-19T00:19:01.847Z,23.23
2022-12-19T00:21:34.745Z,25.02
2022-12-19T00:24:10.458Z,23.55
2022-12-19T00:26:47.713Z,24.33
2022-12-19T00:29:14.755Z,20.00
2022-12-19T00:31:41.624Z,23.95
2022-12-19T00:34:09.586Z,20.13
2022-12-19T00:36:36.387Z,20.77
2022-12-19T00:39:07.918Z,22.20
2022-12-19T00:41:40.362Z,21.25
2022-12-19T00:44:16.340Z,19.65
2022-12-19T00:46:50.271Z,20.08
2022-12-19T00:49:20.691Z,20.45
2022-12-19T00:51:47.408Z,19.27
2022-12-19T00:54:14.345Z,22.23
2022-12-19T00:56:41.815Z,20.95
2022-12-19T00:59:10.484Z,23.65
2022-12-19T01:01:41.539Z,22.98
2022-12-19T01:04:30.544Z,20.05
2022-12-19T01:07:01.906Z,21.13
2022-12-19T01:09:31.149Z,20.48
2022-12-19T01:12:16.789Z,24.50
2022-12-19T01:14:43.719Z,21.02
2022-12-19T01:17:11.048Z,22.23
2022-12-19T01:19:43.665Z,22.55
2022-12-19T01:22:12.755Z,19.75
2022-12-19T01:24:39.812Z,20.40
2022-12-19T01:27:06.533Z,23.00
2022-12-19T01:29:34.704Z,21.60
2022-12-19T01:32:04.398Z,20.45
2022-12-19T01:34:31.296Z,20.42
2022-12-19T01:36:58.090Z,20.90
2022-12-19T01:39:24.797Z,21.20
2022-12-19T01:41:54.235Z,23.13
2022-12-19T01:44:24.156Z,20.27
2022-12-19T01:46:57.655Z,23.33
2022-12-19T01:49:36.303Z,21.10
2022-12-19T01:52:08.039Z,21.48
2022-12-19T01:54:41.153Z,22.60
2022-12-19T01:57:14.012Z,19.08
2022-12-19T01:59:53.551Z,23.38
2022-12-19T02:02:33.315Z,20.70
2022-12-19T02:05:04.535Z,22.83
2022-12-19T02:07:33.293Z,23.23
2022-12-19T02:10:00.348Z,23.42
2022-12-19T02:12:31.231Z,21.45
2022-12-19T02:15:02.746Z,21.60
2022-12-19T02:18:13.662Z,20.25
2022-12-19T02:21:18.202Z,21.95
2022-12-19T02:24:26.327Z,22.85
2022-12-19T02:27:40.152Z,22.25
2022-12-19T02:30:37.628Z,21.92
2022-12-19T02:33:44.877Z,21.60
2022-12-19T02:36:22.842Z,24.38
2022-12-19T02:39:08.357Z,23.05
2022-12-19T02:41:50.757Z,22.08
2022-12-19T02:44:36.119Z,20.13
2022-12-19T02:47:06.002Z,23.08
2022-12-19T02:49:35.754Z,20.95
2022-12-19T02:52:34.488Z,20.50
2022-12-19T02:55:08.485Z,24.45
2022-12-19T03:00:20.916Z,22.60
2022-12-19T03:03:24.205Z,23.05
2022-12-19T03:06:11.364Z,23.15
2022-12-19T03:08:59.660Z,22.52
2022-12-19T03:11:33.775Z,23.33
2022-12-19T03:14:07.359Z,24.35
2022-12-19T03:16:38.334Z,23.75
2022-12-19T03:19:11.880Z,23.85
2022-12-19T03:21:46.085Z,24.33
2022-12-19T03:24:14.672Z,24.25
2022-12-19T03:27:08.050Z,24.95
2022-12-19T03:30:02.523Z,23.85
2022-12-19T03:32:31.600Z,23.65
2022-12-19T03:35:11.654Z,27.23
2022-12-19T03:37:42.197Z,25.70
2022-12-19T03:40:15.139Z,24.48
2022-12-19T03:43:03.431Z,24.30
2022-12-19T03:45:40.031Z,23.05
2022-12-19T03:48:32.987Z,24.23
2022-12-19T03:51:09.914Z,24.35
2022-12-19T03:53:54.898Z,23.00
2022-12-19T03:56:41.199Z,25.25
2022-12-19T03:59:21.155Z,21.80
2022-12-19T04:01:49.952Z,26.02
2022-12-19T04:04:17.582Z,25.33
2022-12-19T04:06:45.601Z,25.67
2022-12-19T04:09:16.744Z,24.88
2022-12-19T04:11:57.412Z,25.25
2022-12-19T04:14:33.307Z,25.33
2022-12-19T04:17:22.949Z,24.73
2022-12-19T04:20:03.267Z,24.90
2022-12-19T04:22:50.799Z,26.13
2022-12-19T04:25:29.501Z,23.92
2022-12-19T04:28:05.862Z,26.40
2022-12-19T04:30:36.534Z,22.42
2022-12-19T04:33:04.312Z,26.35
2022-12-19T04:35:31.579Z,25.27
2022-12-19T04:37:58.424Z,24.42
2022-12-19T04:40:25.201Z,24.55
2022-12-19T04:42:51.916Z,26.17
2022-12-19T04:45:18.723Z,27.85
2022-12-19T04:47:45.745Z,24.88
2022-12-19T04:50:12.489Z,25.65
2022-12-19T04:52:39.227Z,24.55
2022-12-19T04:55:06.799Z,24.10
2022-12-19T04:57:33.587Z,23.85
2022-12-19T05:00:01.320Z,24.83
2022-12-19T05:02:28.351Z,24.55
2022-12-19T05:04:55.244Z,23.95
2022-12-19T05:07:22.094Z,24.88
2022-12-19T05:09:48.897Z,27.13
2022-12-19T05:12:15.684Z,23.40
2022-12-19T05:14:43.048Z,24.10
2022-12-19T05:17:09.776Z,24.88
2022-12-19T05:19:36.663Z,25.95
2022-12-19T05:22:04.086Z,23.23
2022-12-19T05:24:31.197Z,26.55
2022-12-19T05:26:58.130Z,24.45
2022-12-19T05:29:24.862Z,24.02
2022-12-19T05:31:52.272Z,24.40
2022-12-19T05:34:18.989Z,24.13
2022-12-19T05:36:46.630Z,24.98
2022-12-19T05:39:13.386Z,28.92
2022-12-19T05:41:40.093Z,26.25
2022-12-19T05:44:06.803Z,25.67
2022-12-19T05:46:33.509Z,25.10
2022-12-19T05:49:00.246Z,27.25
2022-12-19T05:51:27.430Z,26.27
2022-12-19T05:53:54.142Z,27.95
2022-12-19T05:56:23.085Z,26.55
2022-12-19T05:58:50.527Z,25.30
2022-12-19T06:01:24.819Z,26.67
2022-12-19T06:03:53.371Z,24.48
2022-12-19T06:06:24.533Z,24.77
2022-12-19T06:08:56.411Z,25.40
2022-12-19T06:11:24.092Z,25.58
2022-12-19T06:13:51.302Z,24.05
2022-12-19T06:16:21.483Z,26.77
2022-12-19T06:18:48.371Z,25.45
2022-12-19T06:21:19.351Z,23.60
2022-12-19T06:23:47.067Z,23.60
2022-12-19T06:26:19.967Z,23.83
2022-12-19T06:28:52.719Z,26.38
2022-12-19T06:31:23.014Z,25.30
2022-12-19T06:33:50.258Z,25.23
2022-12-19T06:36:27.046Z,26.58
2022-12-19T06:38:55.825Z,26.05
2022-12-19T06:41:41.150Z,24.77
2022-12-19T06:44:11.635Z,23.38
2022-12-19T06:46:40.584Z,24.73
2022-12-19T06:49:08.598Z,22.38
2022-12-19T06:51:36.035Z,22.85
2022-12-19T06:54:02.798Z,25.95
2022-12-19T06:56:37.709Z,26.55
2022-12-19T06:59:06.053Z,24.35
2022-12-19T07:01:52.453Z,24.25
2022-12-19T07:04:47.042Z,25.45
2022-12-19T07:07:14.465Z,24.02
2022-12-19T07:09:41.430Z,23.23
2022-12-19T07:12:08.286Z,21.40
2022-12-19T07:14:35.040Z,23.15
2022-12-19T07:17:03.628Z,22.90
2022-12-19T07:19:32.836Z,24.77
2022-12-19T07:22:02.173Z,22.65
2022-12-19T07:24:29.875Z,27.00
2022-12-19T07:26:56.844Z,24.77
2022-12-19T07:29:23.579Z,24.02
2022-12-19T07:31:50.350Z,29.35
2022-12-19T07:34:17.176Z,28.60
2022-12-19T07:36:43.910Z,26.23
2022-12-19T07:39:10.831Z,24.83
2022-12-19T07:41:38.557Z,26.40
2022-12-19T07:44:07.139Z,25.15
2022-12-19T07:46:34.210Z,24.65
2022-12-19T07:49:01.145Z,23.63
2022-12-19T07:51:29.167Z,23.70
2022-12-19T07:53:55.980Z,21.13
2022-12-19T07:56:22.747Z,25.10
2022-12-19T07:58:49.811Z,22.10
2022-12-19T08:01:16.578Z,23.15
2022-12-19T08:03:43.533Z,23.67
2022-12-19T08:06:10.651Z,22.08
2022-12-19T08:08:37.784Z,23.25
2022-12-19T08:11:19.322Z,22.38
2022-12-19T08:13:47.999Z,21.48
2022-12-19T08:16:15.204Z,25.05
2022-12-19T08:18:42.156Z,23.30
2022-12-19T08:21:10.465Z,22.83
2022-12-19T08:23:38.791Z,26.65
2022-12-19T08:26:11.611Z,24.67
2022-12-19T08:28:38.909Z,23.27
2022-12-19T08:31:17.948Z,22.63
2022-12-19T08:33:45.574Z,23.55
2022-12-19T08:36:16.048Z,20.98
2022-12-19T08:38:42.770Z,21.00
2022-12-19T08:41:09.931Z,22.05
2022-12-19T08:43:37.164Z,20.85
2022-12-19T08:46:04.975Z,20.10
2022-12-19T08:48:33.758Z,19.67
2022-12-19T08:51:05.330Z,23.27
2022-12-19T08:53:37.315Z,23.25
2022-12-19T08:56:19.342Z,22.50
2022-12-19T08:58:47.192Z,23.58
2022-12-19T09:01:19.247Z,24.15
2022-12-19T09:04:29.445Z,24.80
2022-12-19T09:06:33.947Z,24.92
2022-12-19T09:09:01.037Z,23.30
2022-12-19T09:11:27.902Z,21.45
2022-12-19T09:13:57.528Z,21.77
2022-12-19T09:16:27.967Z,22.83
2022-12-19T09:18:58.558Z,24.48
2022-12-19T09:21:29.336Z,28.05
2022-12-19T09:24:07.123Z,25.38
2022-12-19T09:26:35.607Z,24.83
2022-12-19T09:29:03.601Z,23.77
2022-12-19T09:31:35.004Z,25.13
2022-12-19T09:34:02.977Z,27.50
2022-12-19T09:36:29.744Z,21.33
2022-12-19T09:38:58.594Z,24.30
2022-12-19T09:42:07.991Z,23.08
2022-12-19T09:45:32.386Z,23.13
2022-12-19T09:48:01.969Z,24.63
2022-12-19T09:50:54.347Z,24.73
2022-12-19T09:53:38.184Z,22.52
2022-12-19T09:56:15.333Z,22.33
2022-12-19T09:58:53.223Z,23.95
2022-12-19T10:01:29.609Z,22.98
2022-12-19T10:04:18.347Z,23.23
2022-12-19T10:07:11.876Z,23.85
2022-12-19T10:11:53.888Z,23.58
2022-12-19T10:12:51.384Z,24.50
2022-12-19T10:15:57.421Z,27.65
2022-12-19T10:18:35.610Z,21.30
2022-12-19T10:22:16.228Z,20.90
2022-12-19T10:25:12.911Z,21.42
2022-12-19T10:28:10.195Z,21.48
2022-12-19T10:31:09.896Z,21.63
2022-12-19T10:33:55.811Z,25.43
2022-12-19T10:36:48.864Z,23.48
2022-12-19T10:39:33.419Z,30.02
2022-12-19T10:42:18.657Z,22.55
2022-12-19T10:44:48.132Z,22.92
2022-12-19T10:47:17.511Z,21.85
2022-12-19T10:49:44.317Z,22.80
2022-12-19T10:52:12.674Z,20.17
2022-12-19T10:54:42.852Z,22.30
2022-12-19T10:57:30.397Z,23.60
2022-12-19T11:00:09.655Z,26.05
2022-12-19T11:02:47.137Z,22.27
2022-12-19T11:05:39.231Z,25.27
2022-12-19T11:08:08.801Z,27.77
2022-12-19T11:12:38.585Z,22.10
2022-12-19T11:19:37.112Z,19.88
2022-12-19T11:29:44.436Z,20.60
2022-12-19T11:29:45.132Z,22.45
2022-12-19T11:29:54.648Z,19.33
2022-12-19T11:30:45.316Z,22.65
2022-12-19T11:32:32.028Z,23.30
2022-12-19T11:34:23.823Z,21.88
2022-12-19T11:37:19.624Z,22.50
2022-12-19T11:39:56.253Z,21.83
2022-12-19T11:43:25.495Z,19.25
2022-12-19T11:46:28.243Z,21.05
2022-12-19T11:49:43.834Z,18.63
2022-12-19T11:53:14.668Z,19.10
2022-12-19T11:55:59.185Z,20.02
2022-12-19T11:58:29.872Z,18.58
2022-12-19T12:01:09.232Z,18.88
2022-12-19T12:04:12.512Z,19.20
2022-12-19T12:06:53.034Z,18.35
2022-12-19T12:13:52.005Z,20.10
2022-12-19T12:16:18.589Z,16.45
2022-12-19T12:31:04.789Z,18.17
2022-12-19T12:31:31.134Z,20.38
2022-12-19T12:31:31.852Z,17.50
2022-12-19T12:31:46.929Z,18.73
2022-12-19T12:32:03.001Z,20.20
2022-12-19T12:35:51.513Z,19.30
2022-12-19T12:42:04.715Z,17.70
2022-12-19T12:47:27.836Z,17.02
2022-12-19T12:50:05.480Z,15.43
2022-12-19T12:52:47.857Z,17.27
2022-12-19T12:55:32.453Z,17.00
2022-12-19T12:57:59.712Z,18.92
2022-12-19T13:00:34.655Z,17.75
2022-12-19T13:03:09.399Z,17.50
2022-12-19T13:05:41.076Z,18.30
2022-12-19T13:08:49.971Z,16.20
2022-12-19T13:11:37.920Z,16.40
2022-12-19T13:14:26.450Z,14.32
2022-12-19T13:16:54.417Z,16.42
2022-12-19T13:19:32.730Z,16.33
2022-12-19T13:22:05.482Z,16.35
2022-12-19T13:24:51.642Z,19.10
2022-12-19T13:27:22.412Z,14.75
2022-12-19T13:30:01.139Z,15.70
2022-12-19T13:32:52.902Z,14.75
2022-12-19T13:37:55.693Z,15.00
2022-12-19T13:40:02.345Z,16.33
2022-12-19T13:41:49.015Z,15.32
2022-12-19T13:44:21.901Z,14.70
2022-12-19T13:46:49.602Z,13.68
2022-12-19T13:49:34.290Z,17.35
2022-12-19T13:52:04.975Z,15.85
2022-12-19T13:54:45.472Z,16.55
2022-12-19T13:57:28.733Z,15.25
2022-12-19T14:00:01.784Z,15.00
2022-12-19T14:02:43.715Z,17.38
2022-12-19T14:06:14.446Z,13.25
2022-12-19T14:08:21.485Z,14.43
2022-12-19T14:11:34.077Z,15.32
2022-12-19T14:14:28.176Z,16.08
2022-12-19T14:17:05.020Z,15.85
2022-12-19T14:19:40.419Z,16.20
2022-12-19T14:22:26.356Z,17.50
2022-12-19T14:25:52.321Z,15.20
2022-12-19T14:28:25.550Z,15.65
2022-12-19T14:31:00.766Z,15.52
2022-12-19T14:33:54.257Z,14.85
2022-12-19T14:36:30.747Z,17.10
2022-12-19T14:39:23.670Z,17.15
2022-12-19T14:42:08.521Z,15.48
2022-12-19T14:52:35.432Z,16.67
2022-12-19T14:54:11.644Z,15.07
2022-12-19T14:54:17.437Z,15.73
2022-12-19T14:54:31.209Z,17.45
2022-12-19T14:59:21.427Z,14.32
2022-12-19T15:01:55.845Z,14.73
2022-12-19T15:04:52.314Z,14.15
2022-12-19T15:07:23.762Z,17.48
2022-12-19T15:11:07.400Z,16.02
2022-12-19T15:14:49.012Z,16.10
2022-12-19T15:16:36.047Z,15.43
2022-12-19T15:19:10.890Z,14.55
2022-12-19T15:21:37.631Z,15.73
2022-12-19T15:24:04.587Z,17.30
2022-12-19T15:26:36.156Z,14.27
2022-12-19T15:29:14.090Z,17.10
2022-12-19T15:31:46.555Z,16.90
2022-12-19T15:34:40.149Z,16.73
2022-12-19T15:37:14.842Z,15.95
2022-12-19T15:39:43.069Z,16.35
2022-12-19T15:42:24.406Z,16.55
2022-12-19T15:44:53.925Z,15.15
2022-12-19T15:47:31.977Z,14.70
2022-12-19T15:50:02.561Z,14.43
2022-12-19T15:52:30.141Z,17.33
2022-12-19T15:54:57.408Z,16.67
2022-12-19T15:57:41.991Z,15.90
2022-12-19T16:00:16.232Z,15.18
2022-12-19T16:03:21.190Z,12.68
2022-12-19T16:05:29.955Z,14.52
2022-12-19T16:07:58.773Z,15.77
2022-12-19T16:10:26.513Z,17.30
2022-12-19T16:12:57.351Z,14.90
2022-12-19T16:15:33.560Z,14.60
2022-12-19T16:18:03.080Z,16.65
2022-12-19T16:20:36.083Z,16.50
2022-12-19T16:23:02.972Z,17.17
2022-12-19T16:25:42.505Z,14.13
2022-12-19T16:28:19.616Z,14.32
2022-12-19T16:30:47.299Z,15.20
2022-12-19T16:33:24.861Z,14.93
2022-12-19T16:36:04.247Z,14.73
2022-12-19T16:38:33.226Z,14.82
2022-12-19T16:41:01.496Z,14.75
2022-12-19T16:43:38.435Z,16.80
2022-12-19T16:46:07.963Z,19.52
2022-12-19T16:48:38.048Z,17.15
2022-12-19T16:51:04.926Z,15.18
2022-12-19T16:53:31.643Z,16.27
2022-12-19T16:56:00.747Z,15.02
2022-12-19T16:58:29.493Z,16.67
2022-12-19T17:00:57.004Z,15.38
2022-12-19T17:03:41.412Z,15.65
2022-12-19T17:06:15.191Z,14.27
2022-12-19T17:08:42.516Z,16.02
2022-12-19T17:11:20.323Z,18.45
2022-12-19T17:13:52.243Z,17.35
2022-12-19T17:16:19.516Z,16.52
2022-12-19T17:18:47.232Z,16.40
2022-12-19T17:21:21.768Z,16.40
2022-12-19T17:23:50.429Z,14.35
2022-12-19T17:26:18.449Z,13.45
2022-12-19T17:28:48.167Z,14.43
2022-12-19T17:31:29.025Z,15.68
2022-12-19T17:33:58.977Z,15.52
2022-12-19T17:36:36.767Z,16.25
2022-12-19T17:39:24.195Z,16.98
2022-12-19T17:41:52.309Z,15.00
2022-12-19T17:44:19.390Z,14.45
2022-12-19T17:46:47.573Z,15.25
2022-12-19T17:49:21.653Z,17.38
2022-12-19T17:51:52.340Z,14.65
2022-12-19T17:54:20.874Z,15.88
2022-12-19T17:56:47.854Z,15.27
2022-12-19T17:59:14.691Z,15.07
2022-12-19T18:01:43.710Z,14.90
2022-12-19T18:04:20.769Z,15.88
2022-12-19T18:06:47.857Z,13.15
2022-12-19T18:09:20.458Z,14.77
2022-12-19T18:11:49.244Z,15.38
2022-12-19T18:14:16.756Z,16.08
2022-12-19T18:16:45.426Z,14.27
2022-12-19T18:19:25.145Z,14.00
2022-12-19T18:21:51.987Z,14.88
2022-12-19T18:24:18.732Z,15.93
2022-12-19T18:26:45.616Z,15.10
2022-12-19T18:29:12.727Z,14.75
2022-12-19T18:31:43.607Z,16.58
2022-12-19T18:34:25.369Z,14.68
2022-12-19T18:36:53.433Z,15.55
2022-12-19T18:39:27.764Z,13.93
2022-12-19T18:41:54.876Z,14.68
2022-12-19T18:44:23.051Z,13.38
2022-12-19T18:46:51.834Z,15.90
2022-12-19T18:49:19.911Z,14.77
2022-12-19T18:51:47.040Z,14.63
2022-12-19T18:54:21.211Z,13.57
2022-12-19T18:56:48.310Z,13.27
2022-12-19T18:59:15.064Z,14.68
2022-12-19T19:01:46.576Z,14.95
2022-12-19T19:04:17.535Z,14.13
2022-12-19T19:06:51.581Z,14.68
2022-12-19T19:09:20.393Z,14.27
2022-12-19T19:11:47.180Z,15.65
2022-12-19T19:14:14.465Z,17.02
2022-12-19T19:16:41.528Z,15.82
2022-12-19T19:19:13.803Z,15.23
2022-12-19T19:21:41.618Z,15.15
2022-12-19T19:24:17.922Z,17.95
2022-12-19T19:26:44.804Z,16.73
2022-12-19T19:29:13.555Z,14.05
2022-12-19T19:31:44.730Z,16.42
2022-12-19T19:34:21.809Z,14.23
2022-12-19T19:36:55.844Z,15.70
2022-12-19T19:41:50.232Z,12.45
2022-12-19T19:44:16.984Z,13.10
2022-12-19T19:46:43.872Z,14.80
2022-12-19T19:49:10.639Z,14.27
2022-12-19T19:51:37.491Z,13.93
2022-12-19T19:54:04.629Z,12.68
2022-12-19T19:56:32.287Z,14.27
2022-12-19T19:59:00.606Z,14.75
2022-12-19T20:01:27.561Z,13.35
2022-12-19T20:03:54.487Z,13.88
2022-12-19T20:06:21.312Z,16.55
2022-12-19T20:08:48.196Z,14.88
2022-12-19T20:11:15.330Z,15.18
2022-12-19T20:13:42.247Z,12.98
2022-12-19T20:16:17.915Z,14.70
2022-12-19T20:18:52.733Z,13.85
2022-12-19T20:21:20.361Z,13.27
2022-12-19T20:23:47.470Z,14.63
2022-12-19T20:26:16.446Z,14.52
2022-12-19T20:28:49.022Z,15.23
2022-12-19T20:31:19.261Z,14.68
2022-12-19T20:33:46.713Z,14.13
2022-12-19T20:36:14.276Z,14.63
2022-12-19T20:38:42.623Z,14.77
2022-12-19T20:41:09.376Z,14.75
2022-12-19T20:43:38.262Z,14.90
2022-12-19T20:46:09.699Z,14.02
2022-12-19T20:48:37.215Z,12.52
2022-12-19T20:51:05.511Z,14.90
2022-12-19T20:53:34.904Z,15.40
2022-12-19T20:56:06.543Z,13.98
2022-12-19T20:58:36.808Z,15.73
2022-12-19T21:01:09.671Z,13.75
2022-12-19T21:03:37.975Z,12.65
2022-12-19T21:06:07.260Z,13.77
2022-12-19T21:08:35.344Z,12.90
2022-12-19T21:11:03.641Z,14.20
2022-12-19T21:13:30.497Z,12.32
2022-12-19T21:16:06.885Z,12.80
2022-12-19T21:18:35.176Z,12.05
2022-12-19T21:21:03.496Z,13.73
2022-12-19T21:23:30.477Z,13.45
2022-12-19T21:26:00.320Z,13.43
2022-12-19T21:28:27.372Z,13.77
2022-12-19T21:31:12.109Z,13.02
2022-12-19T21:33:38.919Z,13.05
2022-12-19T21:36:09.242Z,13.82
2022-12-19T21:38:37.748Z,11.95
2022-12-19T21:41:07.377Z,12.32
2022-12-19T21:43:35.737Z,13.50
2022-12-19T21:46:15.683Z,16.55
2022-12-19T21:48:46.875Z,12.80
2022-12-19T21:51:15.114Z,16.02
2022-12-19T21:53:42.394Z,13.77
2022-12-19T21:56:32.625Z,12.40
2022-12-19T21:59:03.675Z,13.10
2022-12-19T22:01:31.702Z,12.48
2022-12-19T22:04:07.977Z,13.75
2022-12-19T22:06:37.232Z,15.50
2022-12-19T22:09:07.224Z,14.02
2022-12-19T22:11:35.809Z,12.73
2022-12-19T22:14:05.140Z,14.80
2022-12-19T22:16:33.196Z,14.48
2022-12-19T22:19:00.737Z,15.88
2022-12-19T22:21:28.050Z,15.10
2022-12-19T22:24:03.095Z,15.85
2022-12-19T22:26:31.996Z,14.90
2022-12-19T22:28:59.330Z,13.88
2022-12-19T22:31:30.359Z,16.08
2022-12-19T22:34:00.725Z,13.73
2022-12-19T22:36:31.321Z,14.75
2022-12-19T22:39:01.351Z,14.73
2022-12-19T22:41:29.389Z,15.50
2022-12-19T22:43:56.608Z,15.32
2022-12-19T22:46:30.429Z,15.55
2022-12-19T22:49:01.542Z,16.00
2022-12-19T22:51:31.199Z,15.30
2022-12-19T22:53:59.454Z,15.88
2022-12-19T22:56:29.365Z,15.10
2022-12-19T22:59:00.358Z,17.08
2022-12-19T23:01:29.553Z,13.68
2022-12-19T23:03:58.845Z,15.88
2022-12-19T23:06:29.119Z,15.45
2022-12-19T23:08:56.172Z,16.58
2022-12-19T23:11:29.449Z,15.05
2022-12-19T23:13:56.168Z,15.07
2022-12-19T23:16:22.904Z,15.25
2022-12-19T23:18:50.102Z,15.93
2022-12-19T23:21:21.474Z,14.48
2022-12-19T23:23:52.167Z,14.88
2022-12-19T23:26:26.383Z,15.13
2022-12-19T23:28:57.724Z,13.73
2022-12-19T23:31:25.631Z,15.60
2022-12-19T23:33:52.747Z,15.35
2022-12-19T23:36:38.163Z,14.32
2022-12-19T23:39:06.727Z,14.43
2022-12-19T23:41:33.545Z,13.00
2022-12-19T23:44:00.430Z,15.65
2022-12-19T23:46:27.999Z,13.32
2022-12-19T23:48:55.750Z,14.65
2022-12-19T23:51:26.474Z,15.52
2022-12-19T23:53:56.996Z,13.90
2022-12-19T23:56:29.942Z,13.55
2022-12-19T23:58:57.452Z,15.02
